createdAt,value
2023-01-29T00:02:00.013Z,36.35
2023-01-29T00:04:27.065Z,36.13
2023-01-29T00:06:54.353Z,42.47
2023-01-29T00:09:21.376Z,39.22
2023-01-29T00:11:48.531Z,41.65
2023-01-29T00:14:15.588Z,42.60
2023-01-29T00:16:42.974Z,37.17
2023-01-29T00:19:10.022Z,35.40
2023-01-29T00:21:37.139Z,35.28
2023-01-29T00:24:04.307Z,37.13
2023-01-29T00:26:31.375Z,34.20
2023-01-29T00:29:00.445Z,33.58
2023-01-29T00:31:27.602Z,35.70
2023-01-29T00:33:54.852Z,35.47
2023-01-29T00:36:22.307Z,34.67
2023-01-29T00:38:58.455Z,41.33
2023-01-29T00:41:51.769Z,34.08
2023-01-29T00:44:37.735Z,32.30
2023-01-29T00:47:25.410Z,31.70
2023-01-29T00:49:52.625Z,34.00
2023-01-29T00:52:25.744Z,31.00
2023-01-29T00:54:53.619Z,29.13
2023-01-29T00:57:20.851Z,35.03
2023-01-29T00:59:47.836Z,37.22
2023-01-29T01:02:33.942Z,34.35
2023-01-29T01:05:02.318Z,34.15
2023-01-29T01:07:29.993Z,34.15
2023-01-29T01:10:15.860Z,34.90
2023-01-29T01:12:43.189Z,35.63
2023-01-29T01:15:10.730Z,32.42
2023-01-29T01:17:37.994Z,33.65
2023-01-29T01:20:05.612Z,33.60
2023-01-29T01:22:32.695Z,35.47
2023-01-29T01:24:59.695Z,31.75
2023-01-29T01:27:26.820Z,33.10
2023-01-29T01:29:53.971Z,30.70
2023-01-29T01:32:20.984Z,31.02
2023-01-29T01:34:48.021Z,32.28
2023-01-29T01:37:15.714Z,32.97
2023-01-29T01:39:42.781Z,33.08
2023-01-29T01:42:13.549Z,32.95
2023-01-29T01:44:53.387Z,28.55
2023-01-29T01:47:23.060Z,27.67
2023-01-29T01:49:50.271Z,31.50
2023-01-29T01:52:18.245Z,30.25
2023-01-29T01:54:45.424Z,30.85
2023-01-29T01:57:16.164Z,33.58
2023-01-29T01:59:47.168Z,28.35
2023-01-29T02:02:33.183Z,30.67
2023-01-29T02:05:18.988Z,26.25
2023-01-29T02:08:05.700Z,26.73
2023-01-29T02:10:37.637Z,24.60
2023-01-29T02:13:05.795Z,26.55
2023-01-29T02:15:32.855Z,27.05
2023-01-29T02:18:00.067Z,25.63
2023-01-29T02:20:28.825Z,25.58
2023-01-29T02:22:56.497Z,25.20
2023-01-29T02:25:26.304Z,26.27
2023-01-29T02:28:12.000Z,22.08
2023-01-29T02:30:44.933Z,21.98
2023-01-29T02:33:22.721Z,22.17
2023-01-29T02:36:08.447Z,22.92
2023-01-29T02:38:43.802Z,22.23
2023-01-29T02:41:14.051Z,21.85
2023-01-29T02:43:48.187Z,22.13
2023-01-29T02:46:27.625Z,21.88
2023-01-29T02:48:57.738Z,21.33
2023-01-29T02:51:32.434Z,24.67
2023-01-29T02:54:03.968Z,22.95
2023-01-29T02:56:39.852Z,23.90
2023-01-29T02:59:09.558Z,22.75
2023-01-29T03:01:44.077Z,21.80
2023-01-29T03:04:16.659Z,21.52
2023-01-29T03:06:45.723Z,21.98
2023-01-29T03:09:25.919Z,20.25
2023-01-29T03:11:55.212Z,26.10
2023-01-29T03:14:48.168Z,20.40
2023-01-29T03:17:15.524Z,18.50
2023-01-29T03:19:43.467Z,20.67
2023-01-29T03:22:11.583Z,18.77
2023-01-29T03:25:00.024Z,16.27
2023-01-29T03:27:51.157Z,18.83
2023-01-29T03:30:38.271Z,17.58
2023-01-29T03:33:07.507Z,20.38
2023-01-29T03:35:37.392Z,18.38
2023-01-29T03:38:05.377Z,18.02
2023-01-29T03:40:36.178Z,21.08
2023-01-29T03:43:15.753Z,20.80
2023-01-29T03:45:50.943Z,20.58
2023-01-29T03:48:37.345Z,19.77
2023-01-29T03:51:26.986Z,21.00
2023-01-29T03:53:54.121Z,19.50
2023-01-29T03:56:36.429Z,19.80
2023-01-29T03:59:11.841Z,18.25
2023-01-29T04:01:45.121Z,19.83
2023-01-29T04:04:22.546Z,19.58
2023-01-29T04:06:51.364Z,18.27
2023-01-29T04:09:24.876Z,19.77
2023-01-29T04:11:55.851Z,19.35
2023-01-29T04:14:22.989Z,18.27
2023-01-29T04:16:52.765Z,18.73
2023-01-29T04:19:19.961Z,19.63
2023-01-29T04:21:49.651Z,20.00
2023-01-29T04:24:17.481Z,20.33
2023-01-29T04:26:55.418Z,20.13
2023-01-29T04:29:38.053Z,20.33
2023-01-29T04:32:10.949Z,21.08
2023-01-29T04:34:51.629Z,19.53
2023-01-29T04:37:29.991Z,19.90
2023-01-29T04:40:04.586Z,20.27
2023-01-29T04:42:38.323Z,19.35
2023-01-29T04:47:39.673Z,20.95
2023-01-29T04:50:19.003Z,22.17
2023-01-29T04:52:51.537Z,21.25
2023-01-29T04:55:21.950Z,21.63
2023-01-29T04:57:51.972Z,23.00
2023-01-29T05:00:28.370Z,20.42
2023-01-29T05:02:55.515Z,20.42
2023-01-29T05:05:22.768Z,20.48
2023-01-29T05:07:50.591Z,20.58
2023-01-29T05:10:19.152Z,24.15
2023-01-29T05:12:48.489Z,20.98
2023-01-29T05:15:19.324Z,19.77
2023-01-29T05:17:46.349Z,19.55
2023-01-29T05:20:13.629Z,20.92
2023-01-29T05:22:42.182Z,21.30
2023-01-29T05:25:29.201Z,21.80
2023-01-29T05:28:06.072Z,21.98
2023-01-29T05:30:34.656Z,22.67
2023-01-29T05:33:01.848Z,23.33
2023-01-29T05:35:29.461Z,20.70
2023-01-29T05:37:57.318Z,22.92
2023-01-29T05:40:25.349Z,22.80
2023-01-29T05:42:52.508Z,22.27
2023-01-29T05:45:19.591Z,21.17
2023-01-29T05:47:47.092Z,18.92
2023-01-29T05:50:15.665Z,20.35
2023-01-29T05:52:43.128Z,22.13
2023-01-29T05:55:10.462Z,21.50
2023-01-29T05:57:37.534Z,22.63
2023-01-29T06:00:05.522Z,24.08
2023-01-29T06:02:32.684Z,23.40
2023-01-29T06:04:59.778Z,23.15
2023-01-29T06:07:26.885Z,22.83
2023-01-29T06:09:53.931Z,24.13
2023-01-29T06:12:20.980Z,24.95
2023-01-29T06:14:48.036Z,22.42
2023-01-29T06:17:15.165Z,23.33
2023-01-29T06:19:42.168Z,23.70
2023-01-29T06:22:09.267Z,26.42
2023-01-29T06:24:36.365Z,24.35
2023-01-29T06:27:03.377Z,24.05
2023-01-29T06:29:30.427Z,23.92
2023-01-29T06:31:57.580Z,24.50
2023-01-29T06:34:24.667Z,26.55
2023-01-29T06:36:51.708Z,23.15
2023-01-29T06:39:18.726Z,23.63
2023-01-29T06:41:46.314Z,24.15
2023-01-29T06:44:13.444Z,22.20
2023-01-29T06:46:40.433Z,25.85
2023-01-29T06:49:07.428Z,23.63
2023-01-29T06:51:34.448Z,23.27
2023-01-29T06:54:01.479Z,22.95
2023-01-29T06:56:28.522Z,25.13
2023-01-29T06:58:55.577Z,24.63
2023-01-29T07:01:35.242Z,23.40
2023-01-29T07:04:03.021Z,23.38
2023-01-29T07:06:30.227Z,25.80
2023-01-29T07:08:57.486Z,23.40
2023-01-29T07:11:24.794Z,24.02
2023-01-29T07:13:51.817Z,26.50
2023-01-29T07:16:19.136Z,23.77
2023-01-29T07:18:46.212Z,23.73
2023-01-29T07:21:13.229Z,23.95
2023-01-29T07:23:40.247Z,21.08
2023-01-29T07:26:07.633Z,22.65
2023-01-29T07:28:38.409Z,24.17
2023-01-29T07:31:06.042Z,23.73
2023-01-29T07:33:33.364Z,25.25
2023-01-29T07:36:00.442Z,23.17
2023-01-29T07:38:27.474Z,22.58
2023-01-29T07:40:54.544Z,23.63
2023-01-29T07:43:21.560Z,24.15
2023-01-29T07:45:48.643Z,22.10
2023-01-29T07:48:15.731Z,23.35
2023-01-29T07:50:43.936Z,25.23
2023-01-29T07:53:13.632Z,24.05
2023-01-29T07:55:40.672Z,22.58
2023-01-29T07:58:07.699Z,24.35
2023-01-29T08:00:34.723Z,23.30
2023-01-29T08:03:06.343Z,23.23
2023-01-29T08:05:33.969Z,24.27
2023-01-29T08:08:06.996Z,24.70
2023-01-29T08:13:02.285Z,24.17
2023-01-29T08:15:29.967Z,25.52
2023-01-29T08:20:44.418Z,21.20
2023-01-29T08:23:16.429Z,22.60
2023-01-29T08:25:43.555Z,23.02
2023-01-29T08:28:11.756Z,21.70
2023-01-29T08:30:39.321Z,23.05
2023-01-29T08:33:06.778Z,20.05
2023-01-29T08:35:33.837Z,21.40
2023-01-29T08:38:01.997Z,18.95
2023-01-29T08:40:31.494Z,20.30
2023-01-29T08:43:03.177Z,21.00
2023-01-29T08:45:33.962Z,20.90
2023-01-29T08:48:01.089Z,21.38
2023-01-29T08:50:29.959Z,21.10
2023-01-29T08:53:00.670Z,21.23
2023-01-29T08:55:28.167Z,20.17
2023-01-29T08:57:57.215Z,20.08
2023-01-29T09:00:24.594Z,19.45
2023-01-29T09:02:51.601Z,19.88
2023-01-29T09:05:19.101Z,21.05
2023-01-29T09:07:46.346Z,19.75
2023-01-29T09:10:13.803Z,18.13
2023-01-29T09:12:40.862Z,19.08
2023-01-29T09:15:08.223Z,19.65
2023-01-29T09:17:35.364Z,18.95
2023-01-29T09:20:02.520Z,21.08
2023-01-29T09:22:29.557Z,19.60
2023-01-29T09:24:56.571Z,21.88
2023-01-29T09:27:23.846Z,21.52
2023-01-29T09:29:50.878Z,22.23
2023-01-29T09:32:37.626Z,21.95
2023-01-29T09:35:05.046Z,22.35
2023-01-29T09:37:32.146Z,22.70
2023-01-29T09:39:59.138Z,21.65
2023-01-29T09:42:41.814Z,21.83
2023-01-29T09:45:15.902Z,23.20
2023-01-29T09:47:44.631Z,19.48
2023-01-29T09:50:20.285Z,21.75
2023-01-29T09:52:57.441Z,21.98
2023-01-29T09:55:53.833Z,22.10
2023-01-29T09:58:34.796Z,21.67
2023-01-29T10:01:13.434Z,20.90
2023-01-29T10:03:40.461Z,21.13
2023-01-29T10:06:16.842Z,23.50
2023-01-29T10:09:02.491Z,20.92
2023-01-29T10:11:39.128Z,21.70
2023-01-29T10:14:20.555Z,22.40
2023-01-29T10:16:56.412Z,23.52
2023-01-29T10:19:29.563Z,20.95
2023-01-29T10:22:05.893Z,25.13
2023-01-29T10:24:32.875Z,22.27
2023-01-29T10:27:00.465Z,23.10
2023-01-29T10:29:28.340Z,24.15
2023-01-29T10:32:04.986Z,23.02
2023-01-29T10:34:35.482Z,21.88
2023-01-29T10:37:11.513Z,21.60
2023-01-29T10:39:38.547Z,21.73
2023-01-29T10:42:24.232Z,23.13
2023-01-29T10:45:01.243Z,21.35
2023-01-29T10:47:30.231Z,22.35
2023-01-29T10:50:23.610Z,19.27
2023-01-29T10:52:59.897Z,20.88
2023-01-29T10:55:32.880Z,21.15
2023-01-29T10:58:08.850Z,20.75
2023-01-29T11:00:40.469Z,22.33
2023-01-29T11:03:26.957Z,22.40
2023-01-29T11:05:57.642Z,20.25
2023-01-29T11:08:28.328Z,20.83
2023-01-29T11:11:02.060Z,21.92
2023-01-29T11:15:56.168Z,22.73
2023-01-29T11:18:23.216Z,21.65
2023-01-29T11:21:01.667Z,23.02
2023-01-29T11:23:30.584Z,21.70
2023-01-29T11:25:58.535Z,21.15
2023-01-29T11:28:40.924Z,21.55
2023-01-29T11:31:28.092Z,21.58
2023-01-29T11:34:03.953Z,23.08
2023-01-29T11:36:32.940Z,21.48
2023-01-29T11:39:27.098Z,22.75
2023-01-29T11:41:57.003Z,23.92
2023-01-29T11:44:31.059Z,19.77
2023-01-29T11:47:01.017Z,23.52
2023-01-29T11:49:31.423Z,23.80
2023-01-29T11:52:01.849Z,20.58
2023-01-29T11:54:31.891Z,22.75
2023-01-29T11:56:59.208Z,20.85
2023-01-29T11:59:40.874Z,21.17
2023-01-29T12:02:26.673Z,20.83
2023-01-29T12:04:55.043Z,20.90
2023-01-29T12:07:22.382Z,21.15
2023-01-29T12:09:59.566Z,22.73
2023-01-29T12:12:35.088Z,22.70
2023-01-29T12:15:05.283Z,21.48
2023-01-29T12:17:34.153Z,20.15
2023-01-29T12:20:05.168Z,23.83
2023-01-29T12:22:51.196Z,22.50
2023-01-29T12:25:44.918Z,21.92
2023-01-29T12:28:30.784Z,21.15
2023-01-29T12:31:27.636Z,25.02
2023-01-29T12:34:00.857Z,22.55
2023-01-29T12:36:30.715Z,21.83
2023-01-29T12:38:59.251Z,21.70
2023-01-29T12:41:26.286Z,22.67
2023-01-29T12:43:56.025Z,23.45
2023-01-29T12:46:28.524Z,22.02
2023-01-29T12:48:57.171Z,22.08
2023-01-29T12:51:26.769Z,21.45
2023-01-29T12:53:59.967Z,21.48
2023-01-29T12:56:26.992Z,18.38
2023-01-29T12:58:55.099Z,20.40
2023-01-29T13:01:37.353Z,21.73
2023-01-29T13:04:07.221Z,22.58
2023-01-29T13:06:54.325Z,24.30
2023-01-29T13:09:27.685Z,23.35
2023-01-29T13:12:03.375Z,21.55
2023-01-29T13:14:30.375Z,21.10
2023-01-29T13:17:02.022Z,23.15
2023-01-29T13:19:32.416Z,20.63
2023-01-29T13:22:02.748Z,23.05
2023-01-29T13:24:36.126Z,20.02
2023-01-29T13:27:03.394Z,21.02
2023-01-29T13:29:31.583Z,22.48
2023-01-29T13:32:03.152Z,22.67
2023-01-29T13:34:35.365Z,23.13
2023-01-29T13:37:03.956Z,20.92
2023-01-29T13:39:32.143Z,20.33
2023-01-29T13:42:00.761Z,20.08
2023-01-29T13:44:29.367Z,22.60
2023-01-29T13:46:56.480Z,20.50
2023-01-29T13:49:32.322Z,21.30
2023-01-29T13:52:00.176Z,21.98
2023-01-29T13:54:27.985Z,21.15
2023-01-29T13:56:59.186Z,19.92
2023-01-29T13:59:46.247Z,19.67
2023-01-29T14:02:20.857Z,21.50
2023-01-29T14:04:48.036Z,21.20
2023-01-29T14:07:33.537Z,22.40
2023-01-29T14:10:14.425Z,21.52
2023-01-29T14:12:42.339Z,21.73
2023-01-29T14:15:18.944Z,19.77
2023-01-29T14:17:59.661Z,19.75
2023-01-29T14:20:43.428Z,21.17
2023-01-29T14:23:21.708Z,20.20
2023-01-29T14:25:49.123Z,19.77
2023-01-29T14:28:20.835Z,21.20
2023-01-29T14:30:49.212Z,21.30
2023-01-29T14:33:36.636Z,21.48
2023-01-29T14:36:09.903Z,20.90
2023-01-29T14:38:37.331Z,22.60
2023-01-29T14:41:24.554Z,24.40
2023-01-29T14:43:51.557Z,21.00
2023-01-29T14:46:36.800Z,23.45
2023-01-29T14:49:03.912Z,21.30
2023-01-29T14:51:37.485Z,19.65
2023-01-29T14:54:25.204Z,18.60
2023-01-29T14:56:58.670Z,20.30
2023-01-29T14:59:29.055Z,20.90
2023-01-29T15:01:57.763Z,20.02
2023-01-29T15:04:29.497Z,20.25
2023-01-29T15:07:11.815Z,18.83
2023-01-29T15:09:43.047Z,21.27
2023-01-29T15:12:28.630Z,19.63
2023-01-29T15:15:04.837Z,19.80
2023-01-29T15:17:34.789Z,22.60
2023-01-29T15:20:01.955Z,20.50
2023-01-29T15:22:32.722Z,20.58
2023-01-29T15:25:04.624Z,20.38
2023-01-29T15:27:31.740Z,19.85
2023-01-29T15:30:00.701Z,21.48
2023-01-29T15:32:33.235Z,21.30
2023-01-29T15:35:01.044Z,21.58
2023-01-29T15:37:29.813Z,24.35
2023-01-29T15:39:56.899Z,19.92
2023-01-29T15:42:25.802Z,21.25
2023-01-29T15:44:56.732Z,21.83
2023-01-29T15:47:26.769Z,20.35
2023-01-29T15:49:53.919Z,19.85
2023-01-29T15:52:22.482Z,23.05
2023-01-29T15:54:49.871Z,23.15
2023-01-29T15:57:22.466Z,22.63
2023-01-29T15:59:51.745Z,24.45
2023-01-29T16:02:38.241Z,24.83
2023-01-29T16:05:13.347Z,22.45
2023-01-29T16:07:40.663Z,23.08
2023-01-29T16:10:08.485Z,20.88
2023-01-29T16:12:35.630Z,23.73
2023-01-29T16:15:04.392Z,22.80
2023-01-29T16:17:35.456Z,21.75
2023-01-29T16:20:06.732Z,23.60
2023-01-29T16:22:34.894Z,25.30
2023-01-29T16:25:03.258Z,23.08
2023-01-29T16:27:31.686Z,24.73
2023-01-29T16:29:58.796Z,22.80
2023-01-29T16:32:25.983Z,24.13
2023-01-29T16:34:56.603Z,23.85
2023-01-29T16:37:31.547Z,22.48
2023-01-29T16:39:58.975Z,24.45
2023-01-29T16:42:27.113Z,22.65
2023-01-29T16:44:54.252Z,22.92
2023-01-29T16:47:24.180Z,23.95
2023-01-29T16:49:52.203Z,26.48
2023-01-29T16:52:29.741Z,24.48
2023-01-29T16:55:00.776Z,26.52
2023-01-29T16:57:32.988Z,26.08
2023-01-29T17:00:02.261Z,27.55
2023-01-29T17:02:30.448Z,31.50
2023-01-29T17:05:23.804Z,24.42
2023-01-29T17:07:50.973Z,26.35
2023-01-29T17:10:19.637Z,30.17
2023-01-29T17:12:53.961Z,26.15
2023-01-29T17:15:34.640Z,27.15
2023-01-29T17:18:02.354Z,30.85
2023-01-29T17:20:30.592Z,28.55
2023-01-29T17:22:57.665Z,26.20
2023-01-29T17:25:24.823Z,27.10
2023-01-29T17:27:52.205Z,32.70
2023-01-29T17:30:23.169Z,26.13
2023-01-29T17:32:50.331Z,22.85
2023-01-29T17:35:17.948Z,23.95
2023-01-29T17:37:45.374Z,22.60
2023-01-29T17:40:18.917Z,28.08
2023-01-29T17:42:46.927Z,62.38
2023-01-29T17:45:13.975Z,44.90
2023-01-29T17:47:41.406Z,27.98
2023-01-29T17:50:26.363Z,27.42
2023-01-29T17:52:53.867Z,22.77
2023-01-29T17:55:21.248Z,24.30
2023-01-29T17:57:48.339Z,26.33
2023-01-29T18:00:17.335Z,22.95
2023-01-29T18:02:44.390Z,24.65
2023-01-29T18:05:12.120Z,24.70
2023-01-29T18:07:40.144Z,27.15
2023-01-29T18:10:08.031Z,25.45
2023-01-29T18:12:35.109Z,25.25
2023-01-29T18:15:02.113Z,26.67
2023-01-29T18:17:29.303Z,26.35
2023-01-29T18:19:58.100Z,29.13
2023-01-29T18:22:25.286Z,30.08
2023-01-29T18:24:52.389Z,28.05
2023-01-29T18:27:19.435Z,26.88
2023-01-29T18:29:46.496Z,26.40
2023-01-29T18:32:13.531Z,26.65
2023-01-29T18:34:41.242Z,28.40
2023-01-29T18:37:08.352Z,30.45
2023-01-29T18:39:35.871Z,28.30
2023-01-29T18:42:02.972Z,30.13
2023-01-29T18:44:30.412Z,29.63
2023-01-29T18:46:57.425Z,27.75
2023-01-29T18:49:24.442Z,28.52
2023-01-29T18:51:51.484Z,29.15
2023-01-29T18:54:20.133Z,29.83
2023-01-29T18:57:08.700Z,27.40
2023-01-29T18:59:34.158Z,28.45
2023-01-29T19:02:01.455Z,29.52
2023-01-29T19:04:28.504Z,29.83
2023-01-29T19:06:55.527Z,29.38
2023-01-29T19:09:22.551Z,28.27
2023-01-29T19:11:49.582Z,31.48
2023-01-29T19:14:16.625Z,28.88
2023-01-29T19:16:44.106Z,32.40
2023-01-29T19:19:11.272Z,27.83
2023-01-29T19:21:38.655Z,30.20
2023-01-29T19:24:05.913Z,29.55
2023-01-29T19:26:34.088Z,30.35
2023-01-29T19:29:01.501Z,31.05
2023-01-29T19:31:28.903Z,29.95
2023-01-29T19:33:55.968Z,28.77
2023-01-29T19:36:22.985Z,32.50
2023-01-29T19:38:50.044Z,29.35
2023-01-29T19:41:17.105Z,34.72
2023-01-29T19:43:45.695Z,30.90
2023-01-29T19:46:12.903Z,30.67
2023-01-29T19:48:39.952Z,32.90
2023-01-29T19:51:12.048Z,33.67
2023-01-29T19:53:40.122Z,31.45
2023-01-29T19:56:08.446Z,30.80
2023-01-29T19:58:35.790Z,31.35
2023-01-29T20:01:07.326Z,30.10
2023-01-29T20:03:34.625Z,30.60
2023-01-29T20:06:03.717Z,32.95
2023-01-29T20:08:30.934Z,31.25
2023-01-29T20:10:58.167Z,31.55
2023-01-29T20:13:25.340Z,30.75
2023-01-29T20:15:52.776Z,30.77
2023-01-29T20:18:20.283Z,34.03
2023-01-29T20:20:48.765Z,34.05
2023-01-29T20:23:25.095Z,31.10
2023-01-29T20:26:02.796Z,30.73
2023-01-29T20:28:30.100Z,32.92
2023-01-29T20:30:58.192Z,31.17
2023-01-29T20:33:25.871Z,32.17
2023-01-29T20:35:59.744Z,33.53
2023-01-29T20:38:31.557Z,35.65
2023-01-29T20:41:05.536Z,31.73
2023-01-29T20:43:32.935Z,31.25
2023-01-29T20:46:00.496Z,32.20
2023-01-29T20:48:27.629Z,30.15
2023-01-29T20:50:55.415Z,32.15
2023-01-29T20:53:22.582Z,33.33
2023-01-29T20:55:49.734Z,32.20
2023-01-29T20:58:17.095Z,33.97
2023-01-29T21:00:45.225Z,34.85
2023-01-29T21:03:12.521Z,32.38
2023-01-29T21:05:39.655Z,33.47
2023-01-29T21:08:06.666Z,32.33
2023-01-29T21:10:33.647Z,34.90
2023-01-29T21:13:00.660Z,33.30
2023-01-29T21:15:27.834Z,36.13
2023-01-29T21:17:55.320Z,33.92
2023-01-29T21:20:22.334Z,34.03
2023-01-29T21:22:49.404Z,36.55
2023-01-29T21:25:20.081Z,35.35
2023-01-29T21:27:47.185Z,33.95
2023-01-29T21:30:14.413Z,37.38
2023-01-29T21:32:41.490Z,37.22
2023-01-29T21:35:08.800Z,37.78
2023-01-29T21:37:37.762Z,36.97
2023-01-29T21:40:05.960Z,37.92
2023-01-29T21:42:51.895Z,37.35
2023-01-29T21:45:19.273Z,39.10
2023-01-29T21:47:46.414Z,37.50
2023-01-29T21:50:13.441Z,36.90
2023-01-29T21:52:40.433Z,38.60
2023-01-29T21:55:07.680Z,40.47
2023-01-29T21:57:34.812Z,37.08
2023-01-29T22:00:01.835Z,38.33
2023-01-29T22:02:31.948Z,39.85
2023-01-29T22:05:17.686Z,38.83
2023-01-29T22:07:45.627Z,39.10
2023-01-29T22:10:13.085Z,40.35
2023-01-29T22:12:40.280Z,43.22
2023-01-29T22:15:08.025Z,42.80
2023-01-29T22:17:35.312Z,40.03
2023-01-29T22:20:02.413Z,40.88
2023-01-29T22:22:29.483Z,40.88
2023-01-29T22:24:58.707Z,39.55
2023-01-29T22:27:25.769Z,44.47
2023-01-29T22:29:52.893Z,41.72
2023-01-29T22:32:19.920Z,42.03
2023-01-29T22:34:47.020Z,43.53
2023-01-29T22:37:14.016Z,42.83
2023-01-29T22:39:41.052Z,43.20
2023-01-29T22:42:08.133Z,41.90
2023-01-29T22:44:36.328Z,41.50
2023-01-29T22:47:03.356Z,42.70
2023-01-29T22:49:31.392Z,43.63
2023-01-29T22:52:10.967Z,43.28
2023-01-29T22:54:38.766Z,40.08
2023-01-29T22:57:05.945Z,41.00
2023-01-29T22:59:33.441Z,43.20
2023-01-29T23:02:00.498Z,47.50
2023-01-29T23:04:27.653Z,49.50
2023-01-29T23:06:54.695Z,41.85
2023-01-29T23:09:21.920Z,43.78
2023-01-29T23:11:49.048Z,45.10
2023-01-29T23:14:16.175Z,47.25
2023-01-29T23:16:43.196Z,42.95
2023-01-29T23:19:12.024Z,45.28
2023-01-29T23:21:39.710Z,41.65
2023-01-29T23:24:07.498Z,41.17
2023-01-29T23:26:52.979Z,43.78
2023-01-29T23:29:19.998Z,42.97
2023-01-29T23:31:47.177Z,45.88
2023-01-29T23:34:15.020Z,49.15
2023-01-29T23:36:42.348Z,41.25
2023-01-29T23:39:09.859Z,44.03
2023-01-29T23:41:37.059Z,46.35
2023-01-29T23:44:04.544Z,43.00
2023-01-29T23:46:31.692Z,49.10
2023-01-29T23:48:58.987Z,43.40
2023-01-29T23:51:26.087Z,43.50
2023-01-29T23:53:53.514Z,46.15
2023-01-29T23:56:20.720Z,46.40
2023-01-29T23:58:47.788Z,45.50
